Time;durP1;ratioP1;P1;durP2;ratioP2;P2;SDS_P1;SDS_P2;PMS_P1;PMS_P2;Temp;Humidity;BMP_temperature;BMP_pressure;BME280_temperature;BME280_humidity;BME280_pressure;Samples;Min_cycle;Max_cycle;Signal;HPM_P1;HPM_P2
2021/12/18 00:02:10;;;;;;;1.27;1.17;;;6.60;99.90;;;;;;5014344;28;20596;-79
2021/12/18 00:04:36;;;;;;;0.20;0.20;;;6.60;99.90;;;;;;4997814;28;20085;-80
2021/12/18 00:07:02;;;;;;;1.23;1.17;;;6.60;99.90;;;;;;5014372;28;20401;-76
2021/12/18 00:09:30;;;;;;;0.45;0.45;;;6.60;99.90;;;;;;5014258;28;20082;-80
2021/12/18 00:11:57;;;;;;;0.90;0.85;;;6.70;99.90;;;;;;5013631;28;20042;-81
2021/12/18 00:14:23;;;;;;;0.70;0.70;;;6.60;99.90;;;;;;4997390;28;20049;-79
2021/12/18 00:16:49;;;;;;;0.85;0.43;;;6.60;99.90;;;;;;4997695;28;20062;-80
2021/12/18 00:19:16;;;;;;;0.70;0.70;;;6.60;99.90;;;;;;5015191;28;20092;-80
2021/12/18 00:21:42;;;;;;;0.63;0.30;;;6.50;99.90;;;;;;5013783;28;20046;-80
2021/12/18 00:24:08;;;;;;;0.10;0.10;;;6.50;99.90;;;;;;4997357;28;20048;-80
2021/12/18 00:26:34;;;;;;;0.38;0.38;;;6.50;99.90;;;;;;4997331;28;20049;-80
2021/12/18 00:29:00;;;;;;;0.47;0.47;;;6.50;99.90;;;;;;4997344;28;20042;-80
2021/12/18 00:31:26;;;;;;;0.80;0.60;;;6.50;99.90;;;;;;5013540;28;20129;-80
2021/12/18 00:33:52;;;;;;;0.50;0.50;;;6.40;99.90;;;;;;4997123;28;20058;-78
2021/12/18 00:36:18;;;;;;;3.83;1.60;;;6.40;99.90;;;;;;5014757;28;20553;-80
2021/12/18 00:38:44;;;;;;;0.40;0.40;;;6.40;99.90;;;;;;5013436;28;20042;-80
2021/12/18 00:41:27;;;;;;;0.38;0.38;;;6.40;99.90;;;;;;4996817;28;20085;-80
2021/12/18 00:44:02;;;;;;;0.93;0.45;;;6.40;99.90;;;;;;4997041;28;20495;-80
2021/12/18 00:46:29;;;;;;;0.20;0.20;;;6.50;99.90;;;;;;5014827;28;20103;-80
2021/12/18 00:48:55;;;;;;;0.63;0.63;;;6.40;99.90;;;;;;5014780;28;20099;-80
2021/12/18 00:51:21;;;;;;;0.10;0.10;;;6.40;99.90;;;;;;5013356;28;20054;-79
2021/12/18 00:53:47;;;;;;;0.45;0.45;;;6.40;99.90;;;;;;4997128;28;20057;-80
2021/12/18 00:56:13;;;;;;;0.20;0.20;;;6.50;99.90;;;;;;5013358;28;20247;-80
2021/12/18 00:58:39;;;;;;;0.20;0.20;;;6.50;99.90;;;;;;4996527;28;20128;-80
2021/12/18 01:01:08;;;;;;;1.85;0.32;;;6.50;99.90;;;;;;5014236;28;20139;-80
2021/12/18 01:03:36;;;;;;;1.15;0.57;;;6.50;99.90;;;;;;5014170;28;20077;-80
2021/12/18 01:06:02;;;;;;;1.00;0.55;;;6.50;99.90;;;;;;5040554;28;20057;-81
2021/12/18 01:08:27;;;;;;;0.88;0.68;;;6.50;99.90;;;;;;4996899;28;20049;-82
2021/12/18 01:13:30;;;;;;;0.90;0.32;;;6.50;99.90;;;;;;5014177;28;20080;-79
2021/12/18 01:16:04;;;;;;;0.20;0.20;;;6.60;99.90;;;;;;4996427;28;20045;-79
2021/12/18 01:23:58;;;;;;;0.20;0.20;;;6.60;99.90;;;;;;4996134;28;20505;-78
2021/12/18 01:26:23;;;;;;;0.35;0.35;;;6.50;99.90;;;;;;5012868;28;20049;-79
2021/12/18 01:28:49;;;;;;;0.50;0.50;;;6.60;99.90;;;;;;5012340;28;20504;-79
2021/12/18 01:31:15;;;;;;;1.45;1.35;;;6.60;99.90;;;;;;4996188;28;20049;-79
2021/12/18 01:33:40;;;;;;;0.43;0.28;;;6.60;99.90;;;;;;5012410;28;20056;-79
2021/12/18 01:36:06;;;;;;;1.40;1.02;;;6.60;99.90;;;;;;5012607;28;20056;-79
2021/12/18 01:38:32;;;;;;;0.95;0.50;;;6.60;99.90;;;;;;4996165;28;20042;-79
2021/12/18 01:41:01;;;;;;;2.83;1.58;;;6.60;99.90;;;;;;5013467;28;20042;-79
2021/12/18 01:46:29;;;;;;;0.20;0.20;;;6.60;99.90;;;;;;5013652;28;20050;-79
2021/12/18 01:54:11;;;;;;;0.75;0.75;;;6.60;99.90;;;;;;5013176;28;20506;-78
2021/12/18 01:56:37;;;;;;;0.30;0.30;;;6.50;99.90;;;;;;5011907;28;20479;-80
2021/12/18 01:59:03;;;;;;;0.50;0.50;;;6.40;99.90;;;;;;4995633;28;20580;-80
2021/12/18 02:01:29;;;;;;;0.65;0.65;;;6.40;99.90;;;;;;4995815;28;20077;-81
2021/12/18 02:03:54;;;;;;;0.52;0.47;;;6.40;99.90;;;;;;4995666;28;20085;-80
2021/12/18 02:06:22;;;;;;;1.60;0.65;;;6.40;99.90;;;;;;5011876;28;20060;-80
2021/12/18 02:08:48;;;;;;;1.55;0.52;;;6.30;99.90;;;;;;5011958;28;20050;-82
2021/12/18 02:21:45;;;;;;;0.50;0.50;;;6.20;99.90;;;;;;5012736;28;20438;-82
2021/12/18 02:24:11;;;;;;;0.63;0.30;;;6.30;99.90;;;;;;5011748;28;20140;-82
2021/12/18 02:26:37;;;;;;;0.10;0.10;;;6.20;99.90;;;;;;5028329;28;20517;-82
2021/12/18 02:29:05;;;;;;;0.52;0.40;;;6.30;99.90;;;;;;5011831;28;20080;-78
2021/12/18 02:31:31;;;;;;;0.20;0.20;;;6.20;99.90;;;;;;5011600;28;20054;-82
2021/12/18 02:33:57;;;;;;;0.50;0.50;;;6.20;99.90;;;;;;5011806;28;20064;-84
2021/12/18 02:36:25;;;;;;;0.50;0.40;;;6.20;99.90;;;;;;5011628;28;20053;-81
2021/12/18 02:41:41;;;;;;;1.10;1.10;;;6.20;99.90;;;;;;5004026;28;20060;-85
2021/12/18 02:44:10;;;;;;;0.20;0.20;;;6.10;99.90;;;;;;4975847;28;20073;-82
2021/12/18 02:46:38;;;;;;;0.10;0.10;;;6.20;99.90;;;;;;4991708;28;20058;-82
2021/12/18 02:49:13;;;;;;;0.52;0.45;;;6.10;99.90;;;;;;4975623;28;20047;-82
2021/12/18 02:51:39;;;;;;;0.20;0.20;;;6.20;99.90;;;;;;4975278;28;20243;-82
2021/12/18 02:54:05;;;;;;;0.45;0.45;;;6.10;99.90;;;;;;4975505;28;20057;-83
2021/12/18 02:56:31;;;;;;;0.10;0.10;;;6.10;99.90;;;;;;4993281;28;20062;-82
2021/12/18 02:59:04;;;;;;;0.10;0.10;;;6.10;99.90;;;;;;4968160;28;20113;-80
2021/12/18 03:01:32;;;;;;;0.30;0.30;;;6.20;99.90;;;;;;4972180;28;20050;-82
2021/12/18 03:04:00;;;;;;;0.43;0.43;;;6.20;99.90;;;;;;4956159;28;20085;-82
2021/12/18 03:06:34;;;;;;;0.20;0.20;;;6.20;99.90;;;;;;4955991;28;20109;-82
2021/12/18 03:25:11;;;;;;;0.20;0.20;;;6.10;99.90;;;;;;4975002;28;20050;-82
2021/12/18 03:27:37;;;;;;;0.30;0.30;;;6.10;99.90;;;;;;4977742;28;20046;-82
2021/12/18 03:30:05;;;;;;;1.67;0.47;;;6.10;99.90;;;;;;4979286;28;20046;-82
2021/12/18 03:32:31;;;;;;;0.70;0.45;;;6.10;99.90;;;;;;4979044;28;20129;-82
2021/12/18 03:34:57;;;;;;;0.73;0.73;;;6.10;99.90;;;;;;4994835;28;20543;-82
2021/12/18 03:37:22;;;;;;;0.10;0.10;;;6.10;99.90;;;;;;4994904;28;20061;-82
2021/12/18 03:39:49;;;;;;;0.10;0.10;;;6.00;99.90;;;;;;4978848;28;20069;-83
2021/12/18 03:42:15;;;;;;;1.20;1.20;;;6.10;99.90;;;;;;4994915;28;20491;-82
2021/12/18 03:44:41;;;;;;;0.30;0.30;;;6.10;99.90;;;;;;4996259;28;20045;-82
2021/12/18 03:47:07;;;;;;;0.28;0.28;;;6.10;99.90;;;;;;4996307;28;20042;-83
2021/12/18 03:49:33;;;;;;;1.20;1.20;;;6.10;99.90;;;;;;4996252;28;20034;-83
2021/12/18 03:51:59;;;;;;;2.83;0.52;;;6.10;99.90;;;;;;4994893;28;20385;-82
2021/12/18 03:54:26;;;;;;;2.22;0.93;;;6.00;99.90;;;;;;4995909;28;20042;-81
2021/12/18 03:56:52;;;;;;;0.57;0.57;;;6.00;99.90;;;;;;4978386;28;20050;-83
2021/12/18 03:59:18;;;;;;;0.20;0.20;;;6.20;99.90;;;;;;4988009;28;20061;-82
2021/12/18 04:01:44;;;;;;;0.10;0.10;;;6.10;99.90;;;;;;4997691;28;20049;-83
2021/12/18 04:04:09;;;;;;;0.20;0.20;;;6.20;99.90;;;;;;4997895;28;20042;-82
2021/12/18 04:06:38;;;;;;;0.10;0.10;;;6.10;99.90;;;;;;5014050;28;20049;-82
2021/12/18 04:09:04;;;;;;;0.10;0.10;;;6.10;99.90;;;;;;4997882;28;20045;-77
2021/12/18 04:11:30;;;;;;;0.47;0.47;;;6.10;99.90;;;;;;4997629;28;20050;-82
2021/12/18 04:13:56;;;;;;;0.43;0.43;;;6.10;99.90;;;;;;5015188;28;20096;-81
2021/12/18 04:16:22;;;;;;;0.25;0.25;;;6.10;99.90;;;;;;4997359;28;20061;-82
2021/12/18 04:18:47;;;;;;;1.52;1.48;;;6.10;99.90;;;;;;5015639;28;20038;-83
2021/12/18 04:21:13;;;;;;;0.10;0.10;;;6.00;99.90;;;;;;4997799;28;20597;-83
2021/12/18 04:23:39;;;;;;;0.30;0.25;;;6.00;99.90;;;;;;4997730;28;20042;-82
2021/12/18 04:26:05;;;;;;;0.30;0.30;;;6.00;99.90;;;;;;4997940;28;20045;-82
2021/12/18 04:28:31;;;;;;;0.20;0.20;;;6.00;99.90;;;;;;4997685;28;20402;-83
2021/12/18 04:30:57;;;;;;;1.33;0.82;;;6.00;99.90;;;;;;5015384;28;20442;-83
2021/12/18 04:33:23;;;;;;;0.45;0.45;;;6.00;99.90;;;;;;4997606;28;20053;-83
2021/12/18 04:35:49;;;;;;;0.28;0.28;;;5.90;99.90;;;;;;4997523;28;20084;-84
2021/12/18 04:38:15;;;;;;;0.95;0.85;;;6.00;99.90;;;;;;5013450;28;20056;-82
2021/12/18 04:40:42;;;;;;;0.25;0.25;;;6.00;99.90;;;;;;5013685;28;20061;-83
2021/12/18 04:43:08;;;;;;;0.22;0.22;;;6.00;99.90;;;;;;5014775;28;20112;-83
2021/12/18 04:45:34;;;;;;;0.45;0.45;;;5.90;99.90;;;;;;5014805;28;20054;-79
2021/12/18 04:47:59;;;;;;;0.63;0.63;;;6.00;99.90;;;;;;5013650;28;20041;-82
2021/12/18 04:50:26;;;;;;;0.10;0.10;;;6.00;99.90;;;;;;4996986;28;20455;-82
2021/12/18 04:52:51;;;;;;;0.20;0.20;;;6.00;99.90;;;;;;5014900;28;20038;-82
2021/12/18 04:55:17;;;;;;;0.20;0.20;;;6.00;99.90;;;;;;5013448;28;20509;-82
2021/12/18 04:57:44;;;;;;;0.20;0.20;;;6.00;99.90;;;;;;4997126;28;20046;-82
2021/12/18 05:00:13;;;;;;;1.25;1.25;;;6.00;99.90;;;;;;4997362;28;20125;-83
2021/12/18 05:02:42;;;;;;;0.77;0.77;;;6.00;99.90;;;;;;5013478;28;20081;-83
2021/12/18 05:05:13;;;;;;;1.30;1.30;;;6.00;99.90;;;;;;5014743;28;20108;-83
2021/12/18 05:07:39;;;;;;;0.13;0.13;;;6.00;99.90;;;;;;5013212;28;20046;-82
2021/12/18 05:10:07;;;;;;;0.20;0.20;;;6.00;99.90;;;;;;5013177;28;20042;-82
2021/12/18 05:12:33;;;;;;;0.75;0.75;;;6.00;99.90;;;;;;5013124;28;20052;-83
2021/12/18 05:14:59;;;;;;;0.40;0.40;;;6.00;99.90;;;;;;4997224;28;20479;-83
2021/12/18 05:17:25;;;;;;;0.32;0.32;;;5.90;99.90;;;;;;5014536;28;20056;-82
2021/12/18 05:19:51;;;;;;;1.98;1.23;;;5.90;99.90;;;;;;4996577;28;20123;-83
2021/12/18 05:22:16;;;;;;;0.25;0.25;;;6.00;99.90;;;;;;4996522;28;20057;-83
2021/12/18 05:24:42;;;;;;;0.70;0.28;;;6.00;99.90;;;;;;5013202;28;20033;-83
2021/12/18 05:27:08;;;;;;;0.20;0.20;;;6.00;99.90;;;;;;5012856;28;20056;-82
2021/12/18 05:29:34;;;;;;;0.20;0.20;;;6.00;99.90;;;;;;4996498;28;20033;-78
2021/12/18 05:32:00;;;;;;;0.93;0.93;;;6.00;99.90;;;;;;4996549;28;20050;-81
2021/12/18 05:34:32;;;;;;;1.02;0.55;;;6.10;99.90;;;;;;5013121;28;20103;-83
2021/12/18 05:39:26;;;;;;;0.88;0.88;;;6.00;99.90;;;;;;5014177;28;20133;-83
2021/12/18 05:41:52;;;;;;;1.23;1.23;;;6.00;99.90;;;;;;4996329;28;20050;-83
2021/12/18 05:44:20;;;;;;;0.60;0.57;;;6.00;99.90;;;;;;4995916;28;20049;-83
2021/12/18 05:46:46;;;;;;;0.10;0.10;;;6.10;99.90;;;;;;5013647;28;20049;-82
2021/12/18 05:49:12;;;;;;;0.20;0.20;;;6.00;99.90;;;;;;4996012;28;20046;-82
2021/12/18 05:51:39;;;;;;;0.95;0.30;;;6.00;99.90;;;;;;4995018;28;20053;-81
2021/12/18 05:54:05;;;;;;;1.02;1.02;;;6.00;99.90;;;;;;4996286;28;20050;-80
2021/12/18 05:56:32;;;;;;;0.20;0.20;;;6.00;99.90;;;;;;5012437;28;20057;-83
2021/12/18 05:58:59;;;;;;;0.52;0.20;;;6.00;99.90;;;;;;5012359;28;20448;-82
2021/12/18 06:01:25;;;;;;;1.00;0.20;;;6.00;99.90;;;;;;5013377;28;20061;-82
2021/12/18 06:03:51;;;;;;;0.60;0.40;;;6.20;99.90;;;;;;5013281;28;20414;-82
2021/12/18 06:06:17;;;;;;;3.20;0.40;;;6.10;99.90;;;;;;5013700;28;20050;-82
2021/12/18 06:08:43;;;;;;;1.05;1.05;;;6.10;99.90;;;;;;5013359;28;20052;-82
2021/12/18 06:11:15;;;;;;;0.20;0.20;;;6.10;99.90;;;;;;4995965;28;20096;-82
2021/12/18 06:13:45;;;;;;;0.35;0.35;;;6.20;99.90;;;;;;4995966;28;20042;-82
2021/12/18 06:16:12;;;;;;;0.20;0.20;;;6.10;99.90;;;;;;5012201;28;20038;-82
2021/12/18 06:18:42;;;;;;;0.30;0.30;;;6.10;99.90;;;;;;5011966;28;20054;-83
2021/12/18 06:21:12;;;;;;;0.20;0.20;;;6.10;99.90;;;;;;4995908;28;20070;-83
2021/12/18 06:23:39;;;;;;;0.30;0.30;;;6.10;99.90;;;;;;4995713;28;20050;-82
2021/12/18 06:26:05;;;;;;;0.20;0.20;;;6.20;99.90;;;;;;4995551;28;20108;-82
2021/12/18 06:28:31;;;;;;;0.30;0.30;;;6.20;99.90;;;;;;4995839;28;20053;-82
2021/12/18 06:30:57;;;;;;;1.65;1.55;;;6.20;99.90;;;;;;5011702;28;20117;-82
2021/12/18 06:33:23;;;;;;;0.38;0.38;;;6.10;99.90;;;;;;4995409;28;20132;-83
2021/12/18 06:35:48;;;;;;;2.50;0.47;;;6.20;99.90;;;;;;4995687;28;20085;-82
2021/12/18 06:38:14;;;;;;;0.88;0.73;;;6.20;99.90;;;;;;4995392;28;20050;-83
2021/12/18 06:40:40;;;;;;;0.30;0.30;;;6.20;99.90;;;;;;4995384;28;20057;-81
2021/12/18 06:43:05;;;;;;;0.30;0.30;;;6.20;99.90;;;;;;5011412;28;20044;-82
2021/12/18 06:45:31;;;;;;;0.80;0.80;;;6.20;99.90;;;;;;4995230;28;20454;-81
2021/12/18 06:47:57;;;;;;;2.38;1.05;;;6.20;99.90;;;;;;4995262;28;20076;-82
2021/12/18 06:50:23;;;;;;;1.38;0.32;;;6.20;99.90;;;;;;4995201;28;20177;-82
2021/12/18 06:52:48;;;;;;;0.25;0.25;;;6.20;99.90;;;;;;4995042;28;20489;-82
2021/12/18 06:55:15;;;;;;;0.30;0.30;;;6.20;99.90;;;;;;5012884;28;20061;-82
2021/12/18 06:57:41;;;;;;;1.75;0.95;;;6.20;99.90;;;;;;4995205;28;20486;-82
2021/12/18 07:00:10;;;;;;;0.30;0.30;;;6.20;99.90;;;;;;5012296;28;20091;-81
2021/12/18 07:02:36;;;;;;;0.20;0.20;;;6.30;99.90;;;;;;5027308;28;20534;-82
2021/12/18 07:05:02;;;;;;;0.30;0.30;;;6.20;99.90;;;;;;5012848;28;20042;-82
2021/12/18 07:07:28;;;;;;;0.20;0.20;;;6.20;99.90;;;;;;4995110;28;20185;-83
2021/12/18 07:09:54;;;;;;;0.52;0.52;;;6.20;99.90;;;;;;4994501;28;20493;-82
2021/12/18 07:12:19;;;;;;;0.30;0.30;;;6.30;99.90;;;;;;5011115;28;20041;-81
2021/12/18 07:14:45;;;;;;;0.65;0.65;;;6.20;99.90;;;;;;4995042;28;20513;-81
2021/12/18 07:17:11;;;;;;;0.20;0.20;;;6.30;99.90;;;;;;5012083;28;20489;-83
2021/12/18 07:19:37;;;;;;;0.30;0.30;;;6.30;99.90;;;;;;5011133;28;20046;-84
2021/12/18 07:22:03;;;;;;;1.35;0.40;;;6.30;99.90;;;;;;5011213;28;20204;-84
2021/12/18 07:24:29;;;;;;;0.20;0.20;;;6.30;99.90;;;;;;4994865;28;20124;-79
2021/12/18 07:26:54;;;;;;;0.47;0.47;;;6.30;99.90;;;;;;4994995;28;20092;-83
2021/12/18 07:29:20;;;;;;;0.15;0.15;;;6.30;99.90;;;;;;4994840;28;20130;-82
2021/12/18 07:31:46;;;;;;;0.20;0.20;;;6.30;99.90;;;;;;4994757;28;20077;-82
2021/12/18 07:34:12;;;;;;;2.25;2.15;;;6.30;99.90;;;;;;4995439;28;20520;-82
2021/12/18 07:36:38;;;;;;;0.10;0.10;;;6.40;99.90;;;;;;5011302;28;20066;-83
2021/12/18 07:39:04;;;;;;;0.35;0.35;;;6.40;99.90;;;;;;5012689;28;20442;-82
2021/12/18 07:41:30;;;;;;;0.20;0.20;;;6.40;99.90;;;;;;5012759;28;20077;-83
2021/12/18 07:43:55;;;;;;;0.40;0.40;;;6.40;99.90;;;;;;5012522;28;20053;-83
2021/12/18 07:46:21;;;;;;;0.20;0.20;;;6.40;99.90;;;;;;5012478;28;20506;-82
2021/12/18 07:48:47;;;;;;;0.30;0.30;;;6.40;99.90;;;;;;4994573;28;20045;-80
2021/12/18 07:51:13;;;;;;;0.95;0.50;;;6.50;99.90;;;;;;5010889;28;20046;-82
2021/12/18 07:53:38;;;;;;;0.20;0.20;;;6.50;99.90;;;;;;5012010;28;20478;-82
2021/12/18 07:56:04;;;;;;;0.20;0.20;;;6.50;99.90;;;;;;5027622;28;20046;-78
2021/12/18 07:58:31;;;;;;;0.30;0.30;;;6.50;99.90;;;;;;5011986;28;20056;-77
2021/12/18 08:05:07;;;;;;;5.88;1.02;;;6.60;99.90;;;;;;5012134;28;20060;-81
2021/12/18 08:07:34;;;;;;;0.32;0.32;;;6.60;99.90;;;;;;5012418;28;20497;-82
2021/12/18 08:09:59;;;;;;;0.25;0.25;;;6.60;99.90;;;;;;4994740;28;20380;-82
2021/12/18 08:12:25;;;;;;;0.57;0.57;;;6.60;99.90;;;;;;4994313;28;20049;-80
2021/12/18 08:14:51;;;;;;;0.30;0.30;;;6.70;99.90;;;;;;4997357;28;20382;-81
2021/12/18 08:17:16;;;;;;;0.98;0.98;;;6.70;99.90;;;;;;5015719;28;20494;-78
2021/12/18 08:19:42;;;;;;;0.20;0.20;;;6.70;99.90;;;;;;5017620;28;20048;-82
2021/12/18 08:22:08;;;;;;;0.68;0.68;;;6.80;99.90;;;;;;5019970;28;20038;-82
2021/12/18 08:24:33;;;;;;;0.20;0.20;;;6.80;99.90;;;;;;5016755;28;20041;-81
2021/12/18 08:26:59;;;;;;;2.58;0.98;;;6.80;99.90;;;;;;5015697;28;20056;-78
2021/12/18 08:29:25;;;;;;;1.88;1.67;;;6.80;99.90;;;;;;5015104;28;20053;-81
2021/12/18 08:31:51;;;;;;;2.38;2.25;;;6.90;99.90;;;;;;5030541;28;20077;-81
2021/12/18 08:34:20;;;;;;;1.77;1.67;;;6.90;99.90;;;;;;5015500;28;20042;-79
2021/12/18 08:36:45;;;;;;;2.22;2.08;;;7.00;99.90;;;;;;5015221;28;20053;-82
2021/12/18 08:39:11;;;;;;;0.65;0.65;;;7.00;99.90;;;;;;5015292;28;20041;-82
2021/12/18 08:41:38;;;;;;;1.67;1.67;;;7.10;99.90;;;;;;5015374;28;20045;-82
2021/12/18 08:44:04;;;;;;;8.43;2.17;;;7.10;99.90;;;;;;4997706;28;20053;-77
2021/12/18 08:46:30;;;;;;;1.42;1.42;;;7.20;99.90;;;;;;5015516;28;20049;-83
2021/12/18 08:48:56;;;;;;;0.90;0.90;;;7.20;99.90;;;;;;5015164;28;20517;-82
2021/12/18 08:51:21;;;;;;;0.82;0.82;;;7.20;99.90;;;;;;5015085;28;20048;-81
2021/12/18 08:53:47;;;;;;;0.82;0.80;;;7.20;99.90;;;;;;5013764;28;20072;-83
2021/12/18 08:56:13;;;;;;;2.83;2.65;;;7.30;99.90;;;;;;5015401;28;20134;-83
2021/12/18 08:58:38;;;;;;;0.98;0.98;;;7.30;99.90;;;;;;5010724;28;20121;-82
2021/12/18 09:01:04;;;;;;;1.73;1.63;;;7.30;99.90;;;;;;5015139;28;20045;-77
2021/12/18 09:03:30;;;;;;;1.92;1.83;;;7.30;99.90;;;;;;4997506;28;20049;-82
2021/12/18 09:05:56;;;;;;;1.77;1.67;;;7.30;99.90;;;;;;5014819;28;20494;-83
2021/12/18 09:08:22;;;;;;;1.58;1.40;;;7.40;99.90;;;;;;5014874;28;20069;-83
2021/12/18 09:10:49;;;;;;;1.50;1.48;;;7.40;99.90;;;;;;5014534;28;20506;-83
2021/12/18 09:13:15;;;;;;;4.18;2.35;;;7.40;99.90;;;;;;4996959;28;20049;-76
2021/12/18 09:15:41;;;;;;;2.28;0.55;;;7.40;99.90;;;;;;5016845;28;20042;-78
2021/12/18 09:18:07;;;;;;;1.70;1.60;;;7.50;99.90;;;;;;5019110;28;20111;-82
2021/12/18 09:20:33;;;;;;;0.35;0.35;;;7.50;99.90;;;;;;5015509;28;20368;-82
2021/12/18 09:23:00;;;;;;;10.02;1.00;;;7.50;99.90;;;;;;5014486;28;20050;-83
2021/12/18 09:25:29;;;;;;;0.50;0.50;;;7.60;99.90;;;;;;5014134;28;20177;-78
2021/12/18 09:27:56;;;;;;;0.30;0.30;;;7.60;99.90;;;;;;5014486;28;20062;-82
2021/12/18 09:30:23;;;;;;;3.63;0.50;;;7.60;99.90;;;;;;5014153;28;20042;-82
2021/12/18 09:32:49;;;;;;;2.22;2.10;;;7.60;99.90;;;;;;5029254;28;20053;-80
2021/12/18 09:35:15;;;;;;;1.88;1.77;;;7.70;99.90;;;;;;5014236;28;20048;-82
2021/12/18 09:37:41;;;;;;;0.20;0.20;;;7.70;99.90;;;;;;5014082;28;20037;-81
2021/12/18 09:40:09;;;;;;;0.82;0.82;;;7.70;99.90;;;;;;5014154;28;20034;-83
2021/12/18 09:42:36;;;;;;;1.63;0.90;;;7.70;99.90;;;;;;4996436;28;20081;-84
2021/12/18 09:45:03;;;;;;;0.20;0.20;;;7.70;99.90;;;;;;5013724;28;20501;-82
2021/12/18 09:47:29;;;;;;;1.10;1.10;;;7.70;99.90;;;;;;4996142;28;20061;-82
2021/12/18 09:49:56;;;;;;;0.52;0.52;;;7.70;99.90;;;;;;4997024;28;20052;-82
2021/12/18 09:52:21;;;;;;;1.45;1.05;;;7.80;99.90;;;;;;5013903;28;20125;-83
2021/12/18 09:54:47;;;;;;;0.22;0.22;;;7.80;99.90;;;;;;5013906;28;20456;-79
2021/12/18 09:57:13;;;;;;;0.30;0.30;;;7.80;99.90;;;;;;5013563;28;20050;-81
2021/12/18 09:59:39;;;;;;;2.45;1.10;;;7.80;99.90;;;;;;5013406;28;20092;-81
2021/12/18 10:02:05;;;;;;;1.17;1.17;;;7.90;99.90;;;;;;5013696;28;20057;-81
2021/12/18 10:04:36;;;;;;;3.60;1.95;;;7.90;99.90;;;;;;5013797;28;20516;-81
2021/12/18 10:07:24;;;;;;;0.40;0.40;;;7.80;99.90;;;;;;5013955;28;20133;-82
2021/12/18 10:09:57;;;;;;;5.05;0.75;;;7.90;99.90;;;;;;5017663;28;20049;-80
2021/12/18 10:12:31;;;;;;;0.88;0.88;;;7.90;99.90;;;;;;5023500;28;20046;-81
2021/12/18 10:15:03;;;;;;;1.20;0.50;;;7.90;99.90;;;;;;4997775;28;20053;-80
2021/12/18 10:17:33;;;;;;;;;;;8.00;99.90;;;;;;5013973;28;20061;-81
2021/12/18 10:20:11;;;;;;;0.20;0.20;;;8.00;99.90;;;;;;5013094;28;20378;-81
2021/12/18 10:22:49;;;;;;;0.30;0.30;;;8.00;99.90;;;;;;5013146;28;20045;-82
2021/12/18 10:25:21;;;;;;;6.13;1.35;;;8.00;99.90;;;;;;5028518;28;20136;-81
2021/12/18 10:28:02;;;;;;;;;;;8.00;99.90;;;;;;5013328;28;20041;-82
2021/12/18 10:30:27;;;;;;;1.80;0.60;;;8.00;99.90;;;;;;5013179;28;19921;-82
2021/12/18 10:33:09;;;;;;;10.70;1.45;;;8.10;99.90;;;;;;4995213;28;20038;-81
2021/12/18 10:35:56;;;;;;;2.78;2.63;;;8.10;99.90;;;;;;5012776;28;20050;-79
2021/12/18 10:38:55;;;;;;;0.30;0.30;;;8.10;99.90;;;;;;5012755;28;20073;-81
2021/12/18 10:41:29;;;;;;;0.32;0.32;;;8.10;99.90;;;;;;4952236;28;20150;-81
2021/12/18 10:43:59;;;;;;;0.30;0.30;;;8.10;99.90;;;;;;4952109;29;20118;-81
2021/12/18 10:46:26;;;;;;;2.05;1.92;;;8.20;99.90;;;;;;4952280;29;20484;-79
2021/12/18 10:48:56;;;;;;;1.90;1.45;;;8.30;99.90;;;;;;4952214;29;20050;-81
2021/12/18 10:51:23;;;;;;;2.40;0.57;;;8.20;99.90;;;;;;4952143;28;20055;-82
2021/12/18 10:53:50;;;;;;;0.30;0.30;;;8.30;99.90;;;;;;4952340;29;20047;-80
2021/12/18 10:56:16;;;;;;;0.70;0.60;;;8.40;99.90;;;;;;4952163;29;20163;-81
2021/12/18 10:58:41;;;;;;;0.63;0.55;;;8.30;99.90;;;;;;4935957;29;20063;-81
2021/12/18 11:01:14;;;;;;;0.73;0.73;;;8.30;99.90;;;;;;4936120;29;20404;-82
2021/12/18 11:03:46;;;;;;;0.13;0.13;;;8.30;99.90;;;;;;4936085;29;20504;-81
2021/12/18 11:06:15;;;;;;;0.40;0.40;;;8.30;99.90;;;;;;4936103;29;20055;-81
2021/12/18 11:09:10;;;;;;;0.40;0.40;;;8.30;99.90;;;;;;4952053;29;20054;-81
2021/12/18 11:14:16;;;;;;;1.70;1.20;;;8.40;99.90;;;;;;4935931;29;20059;-81
2021/12/18 11:16:45;;;;;;;2.30;0.67;;;8.40;99.90;;;;;;4976452;28;20459;-82
2021/12/18 11:19:13;;;;;;;0.73;0.65;;;8.40;99.90;;;;;;5012692;28;20553;-81
2021/12/18 11:21:46;;;;;;;1.13;0.75;;;8.40;99.90;;;;;;5012484;28;20406;-81
2021/12/18 11:24:13;;;;;;;0.20;0.20;;;8.40;99.90;;;;;;5012568;28;20038;-81
2021/12/18 11:26:56;;;;;;;2.75;2.55;;;8.40;99.90;;;;;;5012270;28;20061;-81
2021/12/18 11:29:34;;;;;;;0.68;0.55;;;8.40;99.90;;;;;;5012250;28;20483;-82
2021/12/18 11:32:00;;;;;;;0.20;0.20;;;8.40;99.90;;;;;;5012394;28;20058;-82
2021/12/18 11:34:26;;;;;;;2.47;2.22;;;8.40;99.90;;;;;;5010935;28;20077;-81
2021/12/18 11:36:53;;;;;;;1.33;1.27;;;8.40;99.90;;;;;;5012225;28;20073;-82
2021/12/18 11:39:24;;;;;;;0.25;0.25;;;8.40;99.90;;;;;;5012253;28;20125;-81
2021/12/18 11:41:52;;;;;;;2.85;2.05;;;8.40;99.90;;;;;;5027623;28;20096;-82
2021/12/18 11:44:43;;;;;;;1.17;1.08;;;8.50;99.90;;;;;;5012406;28;20038;-81
2021/12/18 11:47:32;;;;;;;0.50;0.50;;;8.50;99.90;;;;;;4994573;28;20498;-83
2021/12/18 11:50:32;;;;;;;0.93;0.93;;;8.50;99.90;;;;;;5016220;28;20050;-82
2021/12/18 11:53:08;;;;;;;1.35;1.35;;;8.50;99.90;;;;;;5016096;28;20398;-82
2021/12/18 11:55:57;;;;;;;0.82;0.82;;;8.40;99.90;;;;;;5015981;28;20089;-82
2021/12/18 11:58:29;;;;;;;1.33;0.70;;;8.50;99.90;;;;;;5016001;28;20049;-82
2021/12/18 12:01:11;;;;;;;;;;;8.60;99.90;;;;;;4998347;28;20503;-82
2021/12/18 12:03:52;;;;;;;1.30;1.20;;;8.50;99.90;;;;;;5016063;28;20008;-82
2021/12/18 12:06:30;;;;;;;2.42;0.90;;;8.60;99.90;;;;;;5015753;28;20108;-83
2021/12/18 12:11:58;;;;;;;0.45;0.45;;;8.50;99.90;;;;;;5015462;28;20054;-82
2021/12/18 12:14:31;;;;;;;0.45;0.45;;;8.60;99.90;;;;;;5015914;28;20149;-83
2021/12/18 12:17:19;;;;;;;2.65;1.98;;;8.60;99.90;;;;;;5031253;28;20042;-83
2021/12/18 12:19:51;;;;;;;0.57;0.50;;;8.60;99.90;;;;;;5015777;28;20451;-83
2021/12/18 12:22:35;;;;;;;;;;;8.60;99.90;;;;;;5015953;28;20115;-83
2021/12/18 12:25:03;;;;;;;0.22;0.22;;;8.60;99.90;;;;;;5015716;28;19921;-84
2021/12/18 12:27:33;;;;;;;0.80;0.70;;;8.60;99.90;;;;;;5015596;28;20053;-84
2021/12/18 12:30:04;;;;;;;2.03;0.88;;;8.60;99.90;;;;;;5015904;28;20049;-84
2021/12/18 12:32:30;;;;;;;0.30;0.30;;;8.50;99.90;;;;;;5015214;28;20045;-84
2021/12/18 12:35:00;;;;;;;1.08;0.45;;;8.50;99.90;;;;;;5015519;28;20069;-83
2021/12/18 12:37:31;;;;;;;0.40;0.40;;;8.50;99.90;;;;;;5015143;28;20054;-83
2021/12/18 12:40:02;;;;;;;2.15;2.05;;;8.60;99.90;;;;;;5015106;28;20050;-84
2021/12/18 12:42:29;;;;;;;0.70;0.60;;;8.60;99.90;;;;;;5013772;28;20558;-83
2021/12/18 12:45:15;;;;;;;0.20;0.20;;;8.60;99.90;;;;;;5015239;28;20489;-82
2021/12/18 12:47:53;;;;;;;0.10;0.10;;;8.60;99.90;;;;;;5015465;28;20046;-84
2021/12/18 12:50:19;;;;;;;1.48;0.45;;;8.60;99.90;;;;;;5017024;28;20069;-82
2021/12/18 12:53:00;;;;;;;0.30;0.25;;;8.60;99.90;;;;;;5045878;28;20053;-83
2021/12/18 12:55:31;;;;;;;0.23;0.23;;;8.60;99.90;;;;;;5022012;28;20517;-83
2021/12/18 12:58:01;;;;;;;8.07;1.35;;;8.60;99.90;;;;;;5015209;28;20281;-83
2021/12/18 13:00:27;;;;;;;0.50;0.50;;;8.60;99.90;;;;;;5013965;28;20050;-81
2021/12/18 13:02:54;;;;;;;0.30;0.30;;;8.60;99.90;;;;;;5014971;28;20129;-83
2021/12/18 13:05:22;;;;;;;0.20;0.20;;;8.60;99.90;;;;;;5014589;28;20501;-81
2021/12/18 13:07:53;;;;;;;0.32;0.32;;;8.60;99.90;;;;;;5014837;28;20056;-83
2021/12/18 13:10:27;;;;;;;0.68;0.68;;;8.60;99.90;;;;;;5014772;28;20050;-84
2021/12/18 13:12:53;;;;;;;5.05;1.55;;;8.60;99.90;;;;;;5014752;28;20046;-85
2021/12/18 13:15:20;;;;;;;0.55;0.55;;;8.60;99.90;;;;;;5014763;28;20057;-84
2021/12/18 13:17:47;;;;;;;0.50;0.50;;;8.60;99.90;;;;;;4996874;28;20096;-83
2021/12/18 13:20:13;;;;;;;1.92;0.93;;;8.60;99.90;;;;;;5014515;28;20077;-85
2021/12/18 13:22:39;;;;;;;1.10;0.80;;;8.70;99.90;;;;;;5014546;28;20046;-81
2021/12/18 13:25:11;;;;;;;0.57;0.57;;;8.70;99.90;;;;;;5014745;28;20092;-82
2021/12/18 13:27:39;;;;;;;6.68;2.42;;;8.60;99.90;;;;;;4996716;28;20050;-84
2021/12/18 13:30:17;;;;;;;0.40;0.40;;;8.70;99.90;;;;;;5014242;28;20195;-81
2021/12/18 13:32:50;;;;;;;1.95;1.58;;;8.60;99.90;;;;;;5013370;28;20042;-85
2021/12/18 13:35:16;;;;;;;7.38;4.40;;;8.60;99.90;;;;;;5014291;28;20411;-85
2021/12/18 13:37:42;;;;;;;0.70;0.70;;;8.60;99.90;;;;;;5030563;28;20389;-85
2021/12/18 13:40:17;;;;;;;0.60;0.60;;;8.60;99.90;;;;;;5013256;28;20062;-80
2021/12/18 13:42:43;;;;;;;12.35;1.73;;;8.60;99.90;;;;;;5014489;28;20129;-83
2021/12/18 13:45:09;;;;;;;1.52;0.68;;;8.60;99.90;;;;;;5024831;28;20042;-82
2021/12/18 13:47:36;;;;;;;1.55;1.45;;;8.60;99.90;;;;;;5028216;28;20046;-81
2021/12/18 13:50:13;;;;;;;0.30;0.30;;;8.60;99.90;;;;;;5014401;28;20045;-85
2021/12/18 13:52:46;;;;;;;2.28;1.23;;;8.60;99.90;;;;;;5014317;28;20425;-85
2021/12/18 13:56:05;;;;;;;1.55;0.68;;;8.60;99.90;;;;;;5028961;28;20053;-85
2021/12/18 13:58:30;;;;;;;1.13;1.00;;;8.60;99.90;;;;;;5013386;28;20057;-86
2021/12/18 14:01:07;;;;;;;2.00;1.23;;;8.60;99.90;;;;;;5011374;28;20084;-86
2021/12/18 14:03:38;;;;;;;0.40;0.40;;;8.50;99.90;;;;;;5014082;28;20394;-85